createdAt,value
2023-12-01T00:00:26.540Z,14.20
2023-12-01T00:02:55.863Z,13.10
2023-12-01T00:05:23.601Z,14.20
2023-12-01T00:07:51.337Z,14.87
2023-12-01T00:10:19.090Z,14.60
2023-12-01T00:12:46.778Z,14.43
2023-12-01T00:15:14.425Z,15.53
2023-12-01T00:17:42.225Z,16.93
2023-12-01T00:20:12.198Z,15.90
2023-12-01T00:22:39.904Z,13.67
2023-12-01T00:25:08.039Z,14.93
2023-12-01T00:27:35.775Z,14.93
2023-12-01T00:30:04.664Z,13.67
2023-12-01T00:35:00.063Z,15.53
2023-12-01T00:37:29.143Z,15.33
2023-12-01T00:39:56.853Z,16.10
2023-12-01T00:42:24.830Z,16.10
2023-12-01T00:44:52.558Z,17.10
2023-12-01T00:47:20.360Z,17.40
2023-12-01T00:49:48.686Z,17.83
2023-12-01T00:52:16.344Z,17.88
2023-12-01T00:54:45.537Z,17.10
2023-12-01T00:57:13.247Z,16.47
2023-12-01T00:59:40.890Z,17.03
2023-12-01T01:02:09.703Z,15.67
2023-12-01T01:07:05.503Z,16.63
2023-12-01T01:09:33.285Z,16.63
2023-12-01T01:12:02.759Z,17.13
2023-12-01T01:14:30.484Z,17.30
2023-12-01T01:16:58.724Z,17.23
2023-12-01T01:19:26.464Z,18.05
2023-12-01T01:21:54.215Z,18.13
2023-12-01T01:24:22.022Z,16.77
2023-12-01T01:26:49.708Z,18.77
2023-12-01T01:29:18.764Z,17.03
2023-12-01T01:31:46.655Z,15.70
2023-12-01T01:34:14.395Z,15.18
2023-12-01T01:36:45.528Z,16.23
2023-12-01T01:39:13.531Z,16.60
2023-12-01T01:41:41.256Z,16.83
2023-12-01T01:44:08.885Z,15.87
2023-12-01T01:46:38.314Z,15.40
2023-12-01T01:49:06.669Z,16.30
2023-12-01T01:51:36.561Z,14.68
2023-12-01T01:54:04.803Z,14.73
2023-12-01T01:56:34.165Z,15.82
2023-12-01T01:59:02.372Z,15.10
2023-12-01T02:01:31.026Z,15.55
2023-12-01T02:06:34.219Z,13.67
2023-12-01T02:09:02.231Z,14.27
2023-12-01T02:11:29.954Z,13.47
2023-12-01T02:14:00.877Z,14.43
2023-12-01T02:16:29.632Z,14.30
2023-12-01T02:18:57.836Z,15.35
2023-12-01T02:21:27.574Z,15.25
2023-12-01T02:23:57.507Z,14.77
2023-12-01T02:26:25.416Z,14.70
2023-12-01T02:28:53.089Z,15.43
2023-12-01T02:31:20.959Z,14.83
2023-12-01T02:33:48.749Z,16.42
2023-12-01T02:36:18.846Z,16.07
2023-12-01T02:38:46.656Z,15.27
2023-12-01T02:41:16.689Z,14.57
2023-12-01T02:43:44.326Z,15.27
2023-12-01T02:46:13.493Z,16.07
2023-12-01T02:48:41.601Z,14.63
2023-12-01T02:51:10.192Z,15.57
2023-12-01T02:53:37.940Z,16.08
2023-12-01T02:56:06.202Z,15.00
2023-12-01T02:58:35.260Z,15.68
2023-12-01T03:01:04.392Z,15.17
2023-12-01T03:03:32.307Z,14.17
2023-12-01T03:06:00.057Z,14.60
2023-12-01T03:08:27.852Z,15.60
2023-12-01T03:10:56.242Z,14.57
2023-12-01T03:13:24.223Z,14.10
2023-12-01T03:15:53.780Z,16.35
2023-12-01T03:18:23.850Z,15.03
2023-12-01T03:20:52.341Z,15.20
2023-12-01T03:23:20.046Z,15.25
2023-12-01T03:25:47.796Z,15.23
2023-12-01T03:28:16.617Z,14.60
2023-12-01T03:33:13.778Z,14.27
2023-12-01T03:35:41.621Z,15.37
2023-12-01T03:38:09.328Z,16.47
2023-12-01T03:40:36.983Z,14.83
2023-12-01T03:43:04.792Z,15.13
2023-12-01T03:45:32.563Z,16.30
2023-12-01T03:48:00.283Z,16.23
2023-12-01T03:50:29.922Z,16.27
2023-12-01T03:52:57.674Z,15.97
2023-12-01T03:55:25.520Z,15.63
2023-12-01T03:57:53.283Z,16.50
2023-12-01T04:00:23.753Z,16.17
2023-12-01T04:02:51.837Z,17.70
2023-12-01T04:05:23.219Z,17.02
2023-12-01T04:07:56.131Z,16.33
2023-12-01T04:10:25.970Z,18.57
2023-12-01T04:15:26.238Z,15.87
2023-12-01T04:17:54.736Z,16.57
2023-12-01T04:20:23.742Z,17.33
2023-12-01T04:22:54.300Z,17.63
2023-12-01T04:25:22.275Z,17.10
2023-12-01T04:27:50.689Z,17.75
2023-12-01T04:30:18.807Z,17.80
2023-12-01T04:32:49.332Z,17.33
2023-12-01T04:35:17.807Z,16.57
2023-12-01T04:37:45.612Z,19.30
2023-12-01T04:40:18.118Z,17.30
2023-12-01T04:42:46.736Z,18.00
2023-12-01T04:45:16.173Z,18.02
2023-12-01T04:47:45.465Z,16.93
2023-12-01T04:50:14.684Z,17.87
2023-12-01T04:52:43.672Z,18.20
2023-12-01T04:57:41.481Z,17.05
2023-12-01T05:00:20.191Z,17.90
2023-12-01T05:02:49.853Z,17.42
2023-12-01T05:05:18.631Z,19.53
2023-12-01T05:10:16.769Z,18.45
2023-12-01T05:12:50.435Z,16.73
2023-12-01T05:15:19.976Z,18.37
2023-12-01T05:17:49.266Z,18.83
2023-12-01T05:20:17.775Z,19.30
2023-12-01T05:22:47.462Z,18.30
2023-12-01T05:25:16.204Z,19.07
2023-12-01T05:27:50.312Z,18.45
2023-12-01T05:30:20.891Z,18.80
2023-12-01T05:32:49.796Z,18.67
2023-12-01T05:37:49.078Z,18.95
2023-12-01T05:40:18.467Z,18.87
2023-12-01T05:42:48.421Z,18.07
2023-12-01T05:45:17.367Z,17.70
2023-12-01T05:50:14.208Z,17.90
2023-12-01T05:52:43.250Z,17.33
2023-12-01T05:55:17.162Z,17.53
2023-12-01T05:57:47.020Z,17.60
2023-12-01T06:00:18.523Z,16.83
2023-12-01T06:02:47.398Z,17.37
2023-12-01T06:07:44.818Z,17.17
2023-12-01T06:10:13.352Z,16.27
2023-12-01T06:12:41.631Z,16.35
2023-12-01T06:15:11.701Z,15.93
2023-12-01T06:17:42.873Z,17.60
2023-12-01T06:20:18.523Z,16.90
2023-12-01T06:22:48.202Z,17.97
2023-12-01T06:25:16.645Z,18.47
2023-12-01T06:27:44.913Z,18.08
2023-12-01T06:30:14.128Z,17.10
2023-12-01T06:32:43.806Z,17.77
2023-12-01T06:35:13.431Z,19.47
2023-12-01T06:37:41.830Z,17.00
2023-12-01T06:40:13.037Z,17.67
2023-12-01T06:42:42.780Z,17.57
2023-12-01T06:45:12.622Z,17.77
2023-12-01T06:47:42.454Z,18.03
2023-12-01T06:50:12.195Z,16.67
2023-12-01T06:52:40.336Z,17.37
2023-12-01T06:55:09.957Z,16.67
2023-12-01T06:57:39.694Z,18.27
2023-12-01T07:00:09.476Z,17.33
2023-12-01T07:02:39.904Z,17.87
2023-12-01T07:05:08.899Z,17.27
2023-12-01T07:10:08.173Z,17.20
2023-12-01T07:12:36.231Z,18.33
2023-12-01T07:15:04.695Z,16.88
2023-12-01T07:17:32.441Z,16.17
2023-12-01T07:20:00.410Z,16.07
2023-12-01T07:22:28.155Z,17.52
2023-12-01T07:24:57.228Z,16.10
2023-12-01T07:27:26.788Z,15.93
2023-12-01T07:29:54.489Z,14.90
2023-12-01T07:32:22.171Z,14.60
2023-12-01T07:34:50.113Z,14.57
2023-12-01T07:37:17.852Z,16.33
2023-12-01T07:39:45.793Z,14.67
2023-12-01T07:42:14.879Z,15.57
2023-12-01T07:44:42.797Z,14.43
2023-12-01T07:47:13.296Z,15.20
2023-12-01T07:49:41.324Z,14.60
2023-12-01T07:52:09.706Z,14.47
2023-12-01T07:54:37.371Z,15.18
2023-12-01T07:57:05.823Z,13.10
2023-12-01T07:59:34.843Z,13.68
2023-12-01T08:02:04.405Z,14.07
2023-12-01T08:04:32.850Z,12.53
2023-12-01T08:07:00.588Z,12.73
2023-12-01T08:09:32.347Z,12.70
2023-12-01T08:12:00.310Z,14.00
2023-12-01T08:14:28.005Z,13.30
2023-12-01T08:16:57.302Z,12.30
2023-12-01T08:19:25.139Z,12.33
2023-12-01T08:21:53.089Z,13.03
2023-12-01T08:24:31.417Z,12.50
2023-12-01T08:27:00.998Z,12.43
2023-12-01T08:29:28.756Z,12.57
2023-12-01T08:31:58.013Z,12.63
2023-12-01T08:34:26.614Z,11.90
2023-12-01T08:39:22.889Z,10.07
2023-12-01T08:41:54.389Z,10.50
2023-12-01T08:44:22.339Z,10.83
2023-12-01T08:46:50.436Z,12.75
2023-12-01T08:49:20.672Z,11.57
2023-12-01T08:51:48.338Z,11.10
2023-12-01T08:54:21.725Z,11.47
2023-12-01T08:56:50.118Z,11.83
2023-12-01T08:59:18.840Z,10.60
2023-12-01T09:01:46.909Z,10.77
2023-12-01T09:04:14.838Z,11.80
2023-12-01T09:06:43.898Z,12.23
2023-12-01T09:09:13.639Z,11.10
2023-12-01T09:11:41.768Z,10.83
2023-12-01T09:14:09.500Z,11.60
2023-12-01T09:16:37.162Z,11.17
2023-12-01T09:19:07.394Z,10.93
2023-12-01T09:21:35.534Z,10.60
2023-12-01T09:24:05.073Z,11.17
2023-12-01T09:26:32.834Z,12.37
2023-12-01T09:29:00.523Z,11.23
2023-12-01T09:31:28.234Z,11.37
2023-12-01T09:33:56.054Z,11.13
2023-12-01T09:36:23.885Z,11.53
2023-12-01T09:38:51.726Z,11.17
2023-12-01T09:41:21.172Z,11.10
2023-12-01T09:46:18.509Z,11.30
2023-12-01T09:48:48.523Z,10.77
2023-12-01T09:51:16.362Z,10.37
2023-12-01T09:53:44.272Z,10.75
2023-12-01T09:56:13.817Z,12.20
2023-12-01T09:58:44.625Z,11.47
2023-12-01T10:01:12.616Z,9.83
2023-12-01T10:03:40.418Z,11.27
2023-12-01T10:06:09.614Z,11.38
2023-12-01T10:08:37.922Z,11.40
2023-12-01T10:11:21.016Z,12.52
2023-12-01T10:13:51.061Z,11.07
2023-12-01T10:16:19.012Z,10.93
2023-12-01T10:18:58.197Z,10.60
2023-12-01T10:21:46.234Z,10.67
2023-12-01T10:24:15.850Z,11.07
2023-12-01T10:26:45.008Z,11.60
2023-12-01T10:29:30.827Z,10.20
2023-12-01T10:31:59.836Z,10.43
2023-12-01T10:34:28.305Z,11.27
2023-12-01T10:36:56.684Z,10.00
2023-12-01T10:39:30.440Z,10.20
2023-12-01T10:42:02.848Z,9.87
2023-12-01T10:44:35.983Z,10.27
2023-12-01T10:47:04.891Z,10.07
2023-12-01T10:52:03.421Z,10.32
2023-12-01T10:54:32.928Z,9.00
2023-12-01T10:57:13.890Z,9.80
2023-12-01T10:59:47.805Z,10.00
2023-12-01T11:02:16.392Z,10.77
2023-12-01T11:04:46.092Z,10.35
2023-12-01T11:07:47.709Z,10.27
2023-12-01T11:10:25.074Z,11.10
2023-12-01T11:13:09.850Z,10.67
2023-12-01T11:15:40.489Z,10.80
2023-12-01T11:18:09.932Z,9.33
2023-12-01T11:20:38.756Z,9.63
2023-12-01T11:23:23.421Z,9.68
2023-12-01T11:25:56.717Z,10.33
2023-12-01T11:28:29.298Z,9.70
2023-12-01T11:31:09.224Z,10.40
2023-12-01T11:33:41.031Z,10.63
2023-12-01T11:36:24.805Z,10.13
2023-12-01T11:39:28.886Z,9.67
2023-12-01T11:42:12.385Z,9.57
2023-12-01T11:44:41.940Z,9.47
2023-12-01T11:47:14.024Z,10.10
2023-12-01T11:49:44.844Z,9.70
2023-12-01T11:52:14.799Z,9.73
2023-12-01T11:54:43.689Z,8.60
2023-12-01T11:57:12.958Z,9.43
2023-12-01T11:59:40.837Z,9.73
2023-12-01T12:02:09.478Z,10.50
2023-12-01T12:04:39.382Z,9.00
2023-12-01T12:07:07.428Z,8.90
2023-12-01T12:09:36.997Z,9.13
2023-12-01T12:12:10.822Z,10.43
2023-12-01T12:14:40.039Z,8.67
2023-12-01T12:17:08.470Z,9.20
2023-12-01T12:19:46.453Z,9.40
2023-12-01T12:22:18.151Z,9.67
2023-12-01T12:24:46.102Z,9.87
2023-12-01T12:27:14.152Z,9.90
2023-12-01T12:29:41.836Z,8.85
2023-12-01T12:32:09.786Z,9.53
2023-12-01T12:34:39.827Z,10.45
2023-12-01T12:37:12.721Z,9.27
2023-12-01T12:39:43.219Z,9.77
2023-12-01T12:42:17.559Z,9.13
2023-12-01T12:44:46.850Z,9.57
2023-12-01T12:47:14.588Z,9.97
2023-12-01T12:49:43.060Z,10.53
2023-12-01T12:52:12.109Z,9.55
2023-12-01T12:54:42.192Z,9.73
2023-12-01T12:57:09.962Z,9.67
2023-12-01T12:59:38.421Z,9.30
2023-12-01T13:02:06.786Z,8.93
2023-12-01T13:04:34.641Z,10.70
2023-12-01T13:07:02.435Z,10.73
2023-12-01T13:09:31.563Z,10.10
2023-12-01T13:11:59.614Z,10.90
2023-12-01T13:14:27.606Z,10.83
2023-12-01T13:16:56.902Z,11.25
2023-12-01T13:19:25.704Z,10.07
2023-12-01T13:21:56.127Z,10.50
2023-12-01T13:24:24.907Z,10.40
2023-12-01T13:26:54.197Z,9.98
2023-12-01T13:29:21.964Z,10.87
2023-12-01T13:31:50.076Z,10.03
2023-12-01T13:34:19.062Z,9.90
2023-12-01T13:39:17.356Z,8.23
2023-12-01T13:41:45.346Z,8.80
2023-12-01T13:44:15.263Z,9.43
2023-12-01T13:46:43.244Z,9.63
2023-12-01T13:49:12.595Z,8.03
2023-12-01T13:51:40.404Z,8.10
2023-12-01T13:54:11.952Z,8.57
2023-12-01T13:56:42.432Z,8.83
2023-12-01T13:59:10.213Z,8.90
2023-12-01T14:01:40.486Z,8.93
2023-12-01T14:04:08.529Z,9.30
2023-12-01T14:06:36.460Z,8.60
2023-12-01T14:09:05.433Z,9.27
2023-12-01T14:11:33.187Z,8.90
2023-12-01T14:14:00.922Z,8.80
2023-12-01T14:16:28.673Z,9.13
2023-12-01T14:18:57.801Z,9.10
2023-12-01T14:21:26.015Z,8.60
2023-12-01T14:23:53.727Z,8.50
2023-12-01T14:26:21.515Z,7.97
2023-12-01T14:28:49.218Z,9.13
2023-12-01T14:31:17.254Z,8.07
2023-12-01T14:33:45.026Z,8.80
2023-12-01T14:36:15.575Z,8.55
2023-12-01T14:38:43.375Z,8.97
2023-12-01T14:41:11.166Z,9.40
2023-12-01T14:43:39.016Z,9.43
2023-12-01T14:46:07.642Z,8.63
2023-12-01T14:48:35.600Z,8.35
2023-12-01T14:51:03.383Z,8.52
2023-12-01T14:53:32.582Z,9.03
2023-12-01T14:56:00.357Z,8.30
2023-12-01T14:58:28.098Z,8.80
2023-12-01T15:00:55.814Z,8.33
2023-12-01T15:03:23.504Z,9.20
2023-12-01T15:05:51.896Z,9.63
2023-12-01T15:08:19.651Z,8.02
2023-12-01T15:10:49.008Z,9.00
2023-12-01T15:13:16.680Z,8.43
2023-12-01T15:15:44.406Z,9.90
2023-12-01T15:18:12.122Z,8.93
2023-12-01T15:20:39.921Z,9.03
2023-12-01T15:23:07.629Z,10.20
2023-12-01T15:25:35.516Z,9.90
2023-12-01T15:28:04.564Z,9.77
2023-12-01T15:30:33.446Z,9.97
2023-12-01T15:33:03.035Z,10.10
2023-12-01T15:35:30.303Z,10.60
2023-12-01T15:37:57.948Z,10.73
2023-12-01T15:40:25.891Z,10.90
2023-12-01T15:42:53.608Z,9.82
2023-12-01T15:45:22.690Z,10.80
2023-12-01T15:47:50.562Z,9.87
2023-12-01T15:50:18.319Z,9.80
2023-12-01T15:52:46.094Z,10.83
2023-12-01T15:55:13.780Z,9.90
2023-12-01T15:57:41.433Z,9.77
2023-12-01T16:00:10.720Z,10.13
2023-12-01T16:02:39.878Z,11.37
2023-12-01T16:05:09.272Z,9.07
2023-12-01T16:07:37.007Z,9.53
2023-12-01T16:10:04.949Z,10.53
2023-12-01T16:12:32.622Z,10.38
2023-12-01T16:15:08.798Z,9.03
2023-12-01T16:17:44.787Z,9.30
2023-12-01T16:20:13.383Z,9.30
2023-12-01T16:22:41.266Z,10.45
2023-12-01T16:25:09.391Z,11.33
2023-12-01T16:27:37.113Z,10.45
2023-12-01T16:30:05.890Z,10.27
2023-12-01T16:32:33.567Z,9.88
2023-12-01T16:35:03.383Z,11.83
2023-12-01T16:37:31.470Z,12.70
2023-12-01T16:39:59.221Z,12.47
2023-12-01T16:42:27.168Z,13.77
2023-12-01T16:44:58.062Z,11.77
2023-12-01T16:47:25.829Z,12.07
2023-12-01T16:49:53.745Z,12.03
2023-12-01T16:52:23.392Z,12.20
2023-12-01T16:54:51.735Z,11.53
2023-12-01T16:57:19.804Z,11.60
2023-12-01T16:59:48.222Z,12.32
2023-12-01T17:02:16.092Z,11.13
2023-12-01T17:04:43.944Z,11.30
2023-12-01T17:07:11.692Z,11.13
2023-12-01T17:09:42.056Z,11.77
2023-12-01T17:12:10.178Z,12.93
2023-12-01T17:14:38.976Z,13.57
2023-12-01T17:17:07.146Z,11.57
2023-12-01T17:19:35.045Z,10.90
2023-12-01T17:22:02.801Z,12.43
2023-12-01T17:24:30.567Z,12.80
2023-12-01T17:26:59.723Z,13.07
2023-12-01T17:29:29.670Z,13.53
2023-12-01T17:32:01.275Z,12.83
2023-12-01T17:34:29.314Z,12.67
2023-12-01T17:36:57.051Z,14.32
2023-12-01T17:39:24.786Z,14.43
2023-12-01T17:41:52.548Z,14.63
2023-12-01T17:44:22.230Z,18.97
2023-12-01T17:46:50.357Z,16.40
2023-12-01T17:49:18.194Z,17.25
2023-12-01T17:51:45.898Z,16.23
2023-12-01T17:54:14.646Z,15.50
2023-12-01T17:56:42.488Z,15.32
2023-12-01T17:59:10.490Z,13.80
2023-12-01T18:01:39.747Z,14.63
2023-12-01T18:04:07.701Z,14.13
2023-12-01T18:06:35.406Z,14.57
2023-12-01T18:09:03.158Z,13.63
2023-12-01T18:11:30.900Z,13.37
2023-12-01T18:13:58.644Z,12.97
2023-12-01T18:16:26.604Z,12.07
2023-12-01T18:18:55.783Z,13.00
2023-12-01T18:21:23.573Z,13.13
2023-12-01T18:23:51.394Z,15.47
2023-12-01T18:26:19.268Z,13.10
2023-12-01T18:28:46.983Z,15.90
2023-12-01T18:31:15.815Z,15.80
2023-12-01T18:36:15.094Z,16.23
2023-12-01T18:38:42.863Z,15.77
2023-12-01T18:41:11.100Z,17.23
2023-12-01T18:43:39.071Z,16.25
2023-12-01T18:46:07.244Z,14.13
2023-12-01T18:48:35.332Z,14.13
2023-12-01T18:51:05.336Z,14.75
2023-12-01T18:53:36.216Z,16.17
2023-12-01T18:56:03.905Z,14.53
2023-12-01T18:58:31.717Z,14.83
2023-12-01T19:00:59.494Z,15.57
2023-12-01T19:03:27.386Z,16.27
2023-12-01T19:05:55.252Z,14.90
2023-12-01T19:08:23.039Z,13.83
2023-12-01T19:10:53.053Z,14.30
2023-12-01T19:13:20.972Z,12.87
2023-12-01T19:15:48.754Z,15.20
2023-12-01T19:18:16.518Z,14.03
2023-12-01T19:20:44.546Z,13.63
2023-12-01T19:23:12.268Z,13.45
2023-12-01T19:25:39.925Z,14.10
2023-12-01T19:28:08.947Z,13.30
2023-12-01T19:30:36.670Z,13.97
2023-12-01T19:33:04.598Z,13.93
2023-12-01T19:35:32.357Z,14.27
2023-12-01T19:38:00.097Z,14.83
2023-12-01T19:40:27.805Z,13.40
2023-12-01T19:42:55.454Z,13.43
2023-12-01T19:45:24.513Z,16.07
2023-12-01T19:47:52.318Z,18.27
2023-12-01T19:50:20.060Z,18.53
2023-12-01T19:52:47.736Z,17.03
2023-12-01T19:55:15.561Z,14.97
2023-12-01T19:57:44.400Z,15.60
2023-12-01T20:02:41.873Z,15.27
2023-12-01T20:05:10.048Z,15.57
2023-12-01T20:07:37.785Z,17.40
2023-12-01T20:10:06.121Z,18.10
2023-12-01T20:12:33.836Z,16.58
2023-12-01T20:15:01.766Z,15.77
2023-12-01T20:17:29.619Z,15.10
2023-12-01T20:19:58.763Z,14.75
2023-12-01T20:22:26.507Z,14.57
2023-12-01T20:24:54.205Z,14.97
2023-12-01T20:27:21.924Z,17.30
2023-12-01T20:29:49.649Z,16.50
2023-12-01T20:32:17.431Z,16.20
2023-12-01T20:34:46.030Z,15.03
2023-12-01T20:37:15.325Z,15.93
2023-12-01T20:39:44.096Z,16.50
2023-12-01T20:42:11.844Z,16.00
2023-12-01T20:44:39.898Z,16.63
2023-12-01T20:47:09.493Z,16.98
2023-12-01T20:49:39.385Z,18.00
2023-12-01T20:52:08.847Z,19.20
2023-12-01T20:54:39.838Z,17.80
2023-12-01T20:57:07.690Z,15.47
2023-12-01T20:59:35.782Z,16.57
2023-12-01T21:02:04.024Z,15.40
2023-12-01T21:04:33.446Z,16.70
2023-12-01T21:07:01.200Z,15.83
2023-12-01T21:09:29.112Z,15.47
2023-12-01T21:11:58.195Z,16.00
2023-12-01T21:14:26.173Z,15.50
2023-12-01T21:16:53.850Z,15.43
2023-12-01T21:19:21.759Z,16.77
2023-12-01T21:21:49.546Z,19.58
2023-12-01T21:24:18.494Z,18.90
2023-12-01T21:26:49.654Z,18.17
2023-12-01T21:29:19.064Z,18.43
2023-12-01T21:31:46.874Z,18.67
2023-12-01T21:34:14.944Z,18.33
2023-12-01T21:36:44.670Z,17.23
2023-12-01T21:39:15.128Z,17.67
2023-12-01T21:41:42.977Z,17.50
2023-12-01T21:44:11.505Z,17.27
2023-12-01T21:46:40.538Z,16.92
2023-12-01T21:49:08.543Z,16.90
2023-12-01T21:51:36.453Z,17.08
2023-12-01T21:54:06.000Z,16.93
2023-12-01T21:56:33.808Z,16.50
2023-12-01T21:59:01.570Z,15.20
2023-12-01T22:01:29.487Z,15.57
2023-12-01T22:03:58.534Z,16.30
2023-12-01T22:06:26.405Z,15.63
2023-12-01T22:08:54.180Z,15.98
2023-12-01T22:11:21.950Z,14.93
2023-12-01T22:13:49.715Z,15.07
2023-12-01T22:16:20.886Z,16.10
2023-12-01T22:18:53.559Z,15.83
2023-12-01T22:21:22.695Z,15.97
2023-12-01T22:23:50.456Z,15.83
2023-12-01T22:26:18.198Z,16.43
2023-12-01T22:28:45.928Z,16.07
2023-12-01T22:31:13.635Z,16.87
2023-12-01T22:33:41.354Z,16.47
2023-12-01T22:36:09.692Z,16.03
2023-12-01T22:38:38.741Z,17.02
2023-12-01T22:41:07.394Z,16.37
2023-12-01T22:43:35.137Z,17.75
2023-12-01T22:46:04.660Z,16.67
2023-12-01T22:48:32.569Z,17.37
2023-12-01T22:51:00.427Z,15.07
2023-12-01T22:53:28.169Z,16.73
2023-12-01T22:55:57.197Z,16.17
2023-12-01T22:58:25.046Z,16.83
2023-12-01T23:00:52.742Z,16.80
2023-12-01T23:03:20.572Z,15.33
2023-12-01T23:05:48.514Z,16.08
2023-12-01T23:08:16.271Z,14.80
2023-12-01T23:10:44.139Z,15.60
2023-12-01T23:13:13.239Z,15.95
2023-12-01T23:15:40.966Z,15.77
2023-12-01T23:18:08.953Z,16.57
2023-12-01T23:20:36.825Z,15.70
2023-12-01T23:23:04.601Z,16.33
2023-12-01T23:25:32.330Z,15.60
2023-12-01T23:28:00.095Z,15.87
2023-12-01T23:30:29.202Z,16.20
2023-12-01T23:32:58.031Z,17.27
2023-12-01T23:35:25.903Z,16.43
2023-12-01T23:37:53.640Z,16.40
2023-12-01T23:40:21.314Z,15.73
2023-12-01T23:42:48.988Z,16.43
2023-12-01T23:45:17.497Z,16.17
2023-12-01T23:47:47.475Z,16.80
2023-12-01T23:50:15.227Z,15.10
2023-12-01T23:52:42.892Z,15.23
2023-12-01T23:55:10.671Z,16.77
2023-12-01T23:57:38.390Z,15.73
